sensor_id;sensor_type;location;lat;lon;timestamp;P1;durP1;ratioP1;P2;durP2;ratioP2
48268;SDS011;34088;52.232;5.196;2023-08-06T00:02:46;20.95;;;16.50;;
48268;SDS011;34088;52.232;5.196;2023-08-06T00:07:37;23.13;;;16.90;;
48268;SDS011;34088;52.232;5.196;2023-08-06T00:12:27;25.33;;;17.65;;
48268;SDS011;34088;52.232;5.196;2023-08-06T00:14:53;22.80;;;16.95;;
48268;SDS011;34088;52.232;5.196;2023-08-06T00:17:18;24.42;;;17.98;;
48268;SDS011;34088;52.232;5.196;2023-08-06T00:32:55;25.97;;;17.73;;
48268;SDS011;34088;52.232;5.196;2023-08-06T00:37:45;24.27;;;18.00;;
48268;SDS011;34088;52.232;5.196;2023-08-06T00:40:12;21.77;;;17.42;;
48268;SDS011;34088;52.232;5.196;2023-08-06T00:45:03;23.53;;;16.63;;
48268;SDS011;34088;52.232;5.196;2023-08-06T00:47:28;25.10;;;17.25;;
48268;SDS011;34088;52.232;5.196;2023-08-06T00:52:19;20.95;;;15.48;;
48268;SDS011;34088;52.232;5.196;2023-08-06T00:54:44;25.33;;;16.75;;
48268;SDS011;34088;52.232;5.196;2023-08-06T00:59:36;22.23;;;16.70;;
48268;SDS011;34088;52.232;5.196;2023-08-06T01:04:27;19.48;;;14.07;;
48268;SDS011;34088;52.232;5.196;2023-08-06T01:09:44;20.07;;;15.33;;
48268;SDS011;34088;52.232;5.196;2023-08-06T01:15:11;23.15;;;14.70;;
48268;SDS011;34088;52.232;5.196;2023-08-06T01:17:43;25.08;;;15.02;;
48268;SDS011;34088;52.232;5.196;2023-08-06T01:20:10;21.00;;;14.85;;
48268;SDS011;34088;52.232;5.196;2023-08-06T01:25:00;20.20;;;14.50;;
48268;SDS011;34088;52.232;5.196;2023-08-06T01:32:35;17.63;;;13.93;;
48268;SDS011;34088;52.232;5.196;2023-08-06T01:35:03;19.77;;;14.85;;
48268;SDS011;34088;52.232;5.196;2023-08-06T01:39:55;20.27;;;14.45;;
48268;SDS011;34088;52.232;5.196;2023-08-06T01:42:20;18.58;;;14.35;;
48268;SDS011;34088;52.232;5.196;2023-08-06T01:47:10;20.47;;;13.53;;
48268;SDS011;34088;52.232;5.196;2023-08-06T01:52:01;22.57;;;14.97;;
48268;SDS011;34088;52.232;5.196;2023-08-06T01:56:52;21.92;;;14.90;;
48268;SDS011;34088;52.232;5.196;2023-08-06T02:01:43;27.57;;;17.43;;
48268;SDS011;34088;52.232;5.196;2023-08-06T02:06:33;22.27;;;16.77;;
48268;SDS011;34088;52.232;5.196;2023-08-06T02:08:59;28.20;;;18.60;;
48268;SDS011;34088;52.232;5.196;2023-08-06T02:11:24;26.73;;;18.45;;
48268;SDS011;34088;52.232;5.196;2023-08-06T02:16:14;23.40;;;17.30;;
48268;SDS011;34088;52.232;5.196;2023-08-06T02:21:05;25.53;;;18.20;;
48268;SDS011;34088;52.232;5.196;2023-08-06T02:23:30;26.20;;;18.85;;
48268;SDS011;34088;52.232;5.196;2023-08-06T02:26:02;28.30;;;18.73;;
48268;SDS011;34088;52.232;5.196;2023-08-06T02:28:31;27.35;;;19.92;;
48268;SDS011;34088;52.232;5.196;2023-08-06T02:30:57;29.75;;;20.67;;
48268;SDS011;34088;52.232;5.196;2023-08-06T02:35:48;26.87;;;19.40;;
48268;SDS011;34088;52.232;5.196;2023-08-06T02:38:13;29.10;;;20.05;;
48268;SDS011;34088;52.232;5.196;2023-08-06T02:43:10;31.83;;;21.23;;
48268;SDS011;34088;52.232;5.196;2023-08-06T02:48:01;30.97;;;21.73;;
48268;SDS011;34088;52.232;5.196;2023-08-06T02:50:27;28.88;;;21.23;;
48268;SDS011;34088;52.232;5.196;2023-08-06T02:55:18;30.90;;;21.30;;
48268;SDS011;34088;52.232;5.196;2023-08-06T02:57:43;32.88;;;22.25;;
48268;SDS011;34088;52.232;5.196;2023-08-06T03:02:34;32.92;;;22.50;;
48268;SDS011;34088;52.232;5.196;2023-08-06T03:07:24;32.40;;;22.57;;
48268;SDS011;34088;52.232;5.196;2023-08-06T03:12:15;34.07;;;22.63;;
48268;SDS011;34088;52.232;5.196;2023-08-06T03:14:40;32.03;;;22.70;;
48268;SDS011;34088;52.232;5.196;2023-08-06T03:19:31;30.40;;;21.10;;
48268;SDS011;34088;52.232;5.196;2023-08-06T03:21:56;34.53;;;23.15;;
48268;SDS011;34088;52.232;5.196;2023-08-06T03:24:21;37.00;;;24.08;;
48268;SDS011;34088;52.232;5.196;2023-08-06T03:26:46;29.52;;;20.58;;
48268;SDS011;34088;52.232;5.196;2023-08-06T03:31:37;31.77;;;22.63;;
48268;SDS011;34088;52.232;5.196;2023-08-06T03:36:27;33.78;;;22.20;;
48268;SDS011;34088;52.232;5.196;2023-08-06T03:41:18;34.20;;;22.53;;
48268;SDS011;34088;52.232;5.196;2023-08-06T03:46:08;34.47;;;22.90;;
48268;SDS011;34088;52.232;5.196;2023-08-06T03:48:34;28.23;;;21.38;;
48268;SDS011;34088;52.232;5.196;2023-08-06T03:53:26;29.98;;;21.38;;
48268;SDS011;34088;52.232;5.196;2023-08-06T03:58:17;31.75;;;21.42;;
48268;SDS011;34088;52.232;5.196;2023-08-06T04:03:07;30.58;;;21.27;;
48268;SDS011;34088;52.232;5.196;2023-08-06T04:07:58;28.02;;;20.15;;
48268;SDS011;34088;52.232;5.196;2023-08-06T04:10:24;30.00;;;19.00;;
48268;SDS011;34088;52.232;5.196;2023-08-06T04:15:15;25.90;;;19.37;;
48268;SDS011;34088;52.232;5.196;2023-08-06T04:20:06;30.93;;;19.67;;
48268;SDS011;34088;52.232;5.196;2023-08-06T04:24:56;27.97;;;19.83;;
48268;SDS011;34088;52.232;5.196;2023-08-06T04:29:47;28.60;;;20.03;;
48268;SDS011;34088;52.232;5.196;2023-08-06T04:32:12;31.35;;;21.00;;
48268;SDS011;34088;52.232;5.196;2023-08-06T04:34:38;32.53;;;20.85;;
48268;SDS011;34088;52.232;5.196;2023-08-06T04:39:29;31.48;;;20.20;;
48268;SDS011;34088;52.232;5.196;2023-08-06T04:44:22;26.85;;;18.45;;
48268;SDS011;34088;52.232;5.196;2023-08-06T04:49:13;28.33;;;19.23;;
48268;SDS011;34088;52.232;5.196;2023-08-06T04:51:38;27.25;;;18.92;;
48268;SDS011;34088;52.232;5.196;2023-08-06T04:54:04;26.85;;;20.00;;
48268;SDS011;34088;52.232;5.196;2023-08-06T04:58:54;28.65;;;19.85;;
48268;SDS011;34088;52.232;5.196;2023-08-06T05:03:46;27.87;;;19.73;;
48268;SDS011;34088;52.232;5.196;2023-08-06T05:06:12;28.98;;;19.70;;
48268;SDS011;34088;52.232;5.196;2023-08-06T05:11:02;28.30;;;19.30;;
48268;SDS011;34088;52.232;5.196;2023-08-06T05:15:53;27.95;;;19.27;;
48268;SDS011;34088;52.232;5.196;2023-08-06T05:18:19;32.90;;;20.50;;
48268;SDS011;34088;52.232;5.196;2023-08-06T05:23:10;29.53;;;20.07;;
48268;SDS011;34088;52.232;5.196;2023-08-06T05:25:35;30.25;;;20.70;;
48268;SDS011;34088;52.232;5.196;2023-08-06T05:30:26;28.98;;;20.48;;
48268;SDS011;34088;52.232;5.196;2023-08-06T05:35:17;29.07;;;21.23;;
48268;SDS011;34088;52.232;5.196;2023-08-06T05:40:08;29.80;;;20.63;;
48268;SDS011;34088;52.232;5.196;2023-08-06T05:42:33;29.48;;;20.60;;
48268;SDS011;34088;52.232;5.196;2023-08-06T05:47:24;31.23;;;21.50;;
48268;SDS011;34088;52.232;5.196;2023-08-06T05:49:49;32.08;;;22.58;;
48268;SDS011;34088;52.232;5.196;2023-08-06T05:52:14;31.38;;;22.80;;
48268;SDS011;34088;52.232;5.196;2023-08-06T05:54:40;32.28;;;23.02;;
48268;SDS011;34088;52.232;5.196;2023-08-06T05:59:31;30.90;;;21.75;;
48268;SDS011;34088;52.232;5.196;2023-08-06T06:04:21;21.00;;;13.43;;
48268;SDS011;34088;52.232;5.196;2023-08-06T06:09:12;10.33;;;8.17;;
48268;SDS011;34088;52.232;5.196;2023-08-06T06:14:02;7.95;;;6.57;;
48268;SDS011;34088;52.232;5.196;2023-08-06T06:18:52;6.93;;;5.90;;
48268;SDS011;34088;52.232;5.196;2023-08-06T06:21:19;6.22;;;5.25;;
48268;SDS011;34088;52.232;5.196;2023-08-06T06:26:10;4.03;;;3.53;;
48268;SDS011;34088;52.232;5.196;2023-08-06T06:31:00;4.43;;;3.47;;
48268;SDS011;34088;52.232;5.196;2023-08-06T06:35:52;2.95;;;2.50;;
48268;SDS011;34088;52.232;5.196;2023-08-06T06:40:42;4.30;;;3.90;;
48268;SDS011;34088;52.232;5.196;2023-08-06T06:45:32;3.53;;;3.20;;
48268;SDS011;34088;52.232;5.196;2023-08-06T06:50:23;4.35;;;3.67;;
48268;SDS011;34088;52.232;5.196;2023-08-06T06:55:14;5.40;;;3.47;;
48268;SDS011;34088;52.232;5.196;2023-08-06T07:00:05;4.27;;;3.60;;
48268;SDS011;34088;52.232;5.196;2023-08-06T07:02:30;4.30;;;3.88;;
48268;SDS011;34088;52.232;5.196;2023-08-06T07:07:21;5.73;;;4.73;;
48268;SDS011;34088;52.232;5.196;2023-08-06T07:09:46;5.45;;;4.90;;
48268;SDS011;34088;52.232;5.196;2023-08-06T07:14:37;5.60;;;5.10;;
48268;SDS011;34088;52.232;5.196;2023-08-06T07:19:27;7.32;;;5.15;;
48268;SDS011;34088;52.232;5.196;2023-08-06T07:24:18;6.57;;;5.85;;
48268;SDS011;34088;52.232;5.196;2023-08-06T07:29:08;4.23;;;3.77;;
48268;SDS011;34088;52.232;5.196;2023-08-06T07:33:59;4.63;;;4.13;;
48268;SDS011;34088;52.232;5.196;2023-08-06T07:38:49;4.10;;;3.70;;
48268;SDS011;34088;52.232;5.196;2023-08-06T07:41:20;4.78;;;3.83;;
48268;SDS011;34088;52.232;5.196;2023-08-06T07:46:11;5.47;;;3.83;;
48268;SDS011;34088;52.232;5.196;2023-08-06T07:48:38;5.25;;;3.80;;
48268;SDS011;34088;52.232;5.196;2023-08-06T07:53:29;7.13;;;4.00;;
48268;SDS011;34088;52.232;5.196;2023-08-06T07:55:57;5.45;;;3.75;;
48268;SDS011;34088;52.232;5.196;2023-08-06T08:00:48;6.95;;;4.20;;
48268;SDS011;34088;52.232;5.196;2023-08-06T08:05:40;8.55;;;5.43;;
48268;SDS011;34088;52.232;5.196;2023-08-06T08:08:09;6.70;;;4.80;;
48268;SDS011;34088;52.232;5.196;2023-08-06T08:13:03;8.00;;;5.28;;
48268;SDS011;34088;52.232;5.196;2023-08-06T08:15:29;7.68;;;5.25;;
48268;SDS011;34088;52.232;5.196;2023-08-06T08:17:55;7.28;;;5.72;;
48268;SDS011;34088;52.232;5.196;2023-08-06T08:22:47;6.50;;;5.25;;
48268;SDS011;34088;52.232;5.196;2023-08-06T08:27:37;7.20;;;5.90;;
48268;SDS011;34088;52.232;5.196;2023-08-06T08:32:28;5.70;;;4.57;;
48268;SDS011;34088;52.232;5.196;2023-08-06T08:37:19;6.93;;;5.20;;
48268;SDS011;34088;52.232;5.196;2023-08-06T08:42:09;8.50;;;6.80;;
48268;SDS011;34088;52.232;5.196;2023-08-06T08:47:04;7.75;;;6.57;;
48268;SDS011;34088;52.232;5.196;2023-08-06T08:49:31;6.78;;;6.15;;
48268;SDS011;34088;52.232;5.196;2023-08-06T08:54:23;7.70;;;6.38;;
48268;SDS011;34088;52.232;5.196;2023-08-06T08:56:50;10.88;;;6.82;;
48268;SDS011;34088;52.232;5.196;2023-08-06T09:01:40;9.27;;;7.47;;
48268;SDS011;34088;52.232;5.196;2023-08-06T09:04:07;7.82;;;6.95;;
48268;SDS011;34088;52.232;5.196;2023-08-06T09:06:34;8.45;;;6.57;;
48268;SDS011;34088;52.232;5.196;2023-08-06T09:09:08;8.90;;;6.55;;
48268;SDS011;34088;52.232;5.196;2023-08-06T09:11:39;7.43;;;6.40;;
48268;SDS011;34088;52.232;5.196;2023-08-06T09:14:07;9.15;;;6.57;;
48268;SDS011;34088;52.232;5.196;2023-08-06T09:19:12;8.25;;;6.25;;
48268;SDS011;34088;52.232;5.196;2023-08-06T09:21:40;8.43;;;6.57;;
48268;SDS011;34088;52.232;5.196;2023-08-06T09:24:10;8.88;;;6.53;;
48268;SDS011;34088;52.232;5.196;2023-08-06T09:26:38;9.35;;;6.78;;
48268;SDS011;34088;52.232;5.196;2023-08-06T09:29:08;11.30;;;6.93;;
48268;SDS011;34088;52.232;5.196;2023-08-06T09:31:49;7.47;;;6.57;;
48268;SDS011;34088;52.232;5.196;2023-08-06T09:34:19;9.32;;;6.78;;
48268;SDS011;34088;52.232;5.196;2023-08-06T09:36:47;9.30;;;6.20;;
48268;SDS011;34088;52.232;5.196;2023-08-06T09:39:16;9.30;;;6.75;;
48268;SDS011;34088;52.232;5.196;2023-08-06T09:41:43;11.18;;;7.13;;
48268;SDS011;34088;52.232;5.196;2023-08-06T09:44:21;9.10;;;7.18;;
48268;SDS011;34088;52.232;5.196;2023-08-06T09:46:49;10.73;;;7.30;;
48268;SDS011;34088;52.232;5.196;2023-08-06T09:49:15;10.35;;;7.13;;
48268;SDS011;34088;52.232;5.196;2023-08-06T09:54:07;11.52;;;6.95;;
48268;SDS011;34088;52.232;5.196;2023-08-06T09:56:37;14.00;;;6.97;;
48268;SDS011;34088;52.232;5.196;2023-08-06T10:01:32;12.50;;;7.82;;
48268;SDS011;34088;52.232;5.196;2023-08-06T10:03:58;12.43;;;8.00;;
48268;SDS011;34088;52.232;5.196;2023-08-06T10:06:25;11.80;;;7.50;;
48268;SDS011;34088;52.232;5.196;2023-08-06T10:08:51;12.77;;;7.75;;
48268;SDS011;34088;52.232;5.196;2023-08-06T10:13:42;13.75;;;7.28;;
48268;SDS011;34088;52.232;5.196;2023-08-06T10:16:08;10.93;;;6.10;;
48268;SDS011;34088;52.232;5.196;2023-08-06T10:21:02;11.23;;;5.57;;
48268;SDS011;34088;52.232;5.196;2023-08-06T10:26:00;10.25;;;5.45;;
48268;SDS011;34088;52.232;5.196;2023-08-06T10:30:59;8.85;;;4.70;;
48268;SDS011;34088;52.232;5.196;2023-08-06T10:36:04;10.40;;;5.20;;
48268;SDS011;34088;52.232;5.196;2023-08-06T10:38:34;9.38;;;5.25;;
48268;SDS011;34088;52.232;5.196;2023-08-06T10:41:02;10.80;;;5.78;;
48268;SDS011;34088;52.232;5.196;2023-08-06T10:43:29;11.88;;;4.88;;
48268;SDS011;34088;52.232;5.196;2023-08-06T10:45:55;9.75;;;4.28;;
48268;SDS011;34088;52.232;5.196;2023-08-06T10:48:37;10.52;;;4.50;;
48268;SDS011;34088;52.232;5.196;2023-08-06T10:51:08;7.30;;;4.35;;
48268;SDS011;34088;52.232;5.196;2023-08-06T10:53:37;8.45;;;3.90;;
48268;SDS011;34088;52.232;5.196;2023-08-06T10:56:15;7.43;;;3.25;;
48268;SDS011;34088;52.232;5.196;2023-08-06T10:58:47;9.02;;;3.65;;
48268;SDS011;34088;52.232;5.196;2023-08-06T11:01:13;7.68;;;3.10;;
48268;SDS011;34088;52.232;5.196;2023-08-06T11:03:40;8.23;;;4.00;;
48268;SDS011;34088;52.232;5.196;2023-08-06T11:06:06;10.00;;;3.70;;
48268;SDS011;34088;52.232;5.196;2023-08-06T11:11:14;7.45;;;3.47;;
48268;SDS011;34088;52.232;5.196;2023-08-06T11:13:41;6.45;;;3.15;;
48268;SDS011;34088;52.232;5.196;2023-08-06T11:16:08;4.82;;;3.03;;
48268;SDS011;34088;52.232;5.196;2023-08-06T11:18:34;6.20;;;2.90;;
48268;SDS011;34088;52.232;5.196;2023-08-06T11:23:28;6.47;;;3.00;;
48268;SDS011;34088;52.232;5.196;2023-08-06T11:25:55;6.15;;;3.28;;
48268;SDS011;34088;52.232;5.196;2023-08-06T11:28:21;7.95;;;3.38;;
48268;SDS011;34088;52.232;5.196;2023-08-06T11:33:12;5.75;;;2.95;;
48268;SDS011;34088;52.232;5.196;2023-08-06T11:38:03;7.13;;;2.97;;
48268;SDS011;34088;52.232;5.196;2023-08-06T11:42:54;7.78;;;2.90;;
48268;SDS011;34088;52.232;5.196;2023-08-06T11:45:22;5.47;;;2.50;;
48268;SDS011;34088;52.232;5.196;2023-08-06T11:47:52;6.30;;;2.50;;
48268;SDS011;34088;52.232;5.196;2023-08-06T11:50:21;7.65;;;2.70;;
48268;SDS011;34088;52.232;5.196;2023-08-06T11:52:47;7.75;;;2.63;;
48268;SDS011;34088;52.232;5.196;2023-08-06T11:57:43;6.77;;;2.53;;
48268;SDS011;34088;52.232;5.196;2023-08-06T12:00:13;5.57;;;2.50;;
48268;SDS011;34088;52.232;5.196;2023-08-06T12:02:39;6.95;;;2.75;;
48268;SDS011;34088;52.232;5.196;2023-08-06T12:07:44;4.90;;;2.55;;
48268;SDS011;34088;52.232;5.196;2023-08-06T12:10:11;4.32;;;2.63;;
48268;SDS011;34088;52.232;5.196;2023-08-06T12:12:37;5.43;;;2.83;;
48268;SDS011;34088;52.232;5.196;2023-08-06T12:17:29;5.72;;;2.85;;
48268;SDS011;34088;52.232;5.196;2023-08-06T12:19:54;5.55;;;2.90;;
48268;SDS011;34088;52.232;5.196;2023-08-06T12:24:45;6.80;;;3.03;;
48268;SDS011;34088;52.232;5.196;2023-08-06T12:27:12;6.65;;;2.85;;
48268;SDS011;34088;52.232;5.196;2023-08-06T12:32:07;6.03;;;3.00;;
48268;SDS011;34088;52.232;5.196;2023-08-06T12:36:58;5.60;;;3.00;;
48268;SDS011;34088;52.232;5.196;2023-08-06T12:41:49;6.38;;;3.50;;
48268;SDS011;34088;52.232;5.196;2023-08-06T12:46:40;7.82;;;3.50;;
48268;SDS011;34088;52.232;5.196;2023-08-06T12:49:05;6.93;;;3.15;;
48268;SDS011;34088;52.232;5.196;2023-08-06T12:51:31;6.47;;;3.40;;
48268;SDS011;34088;52.232;5.196;2023-08-06T12:53:58;6.13;;;2.80;;
48268;SDS011;34088;52.232;5.196;2023-08-06T12:58:49;6.37;;;3.27;;
48268;SDS011;34088;52.232;5.196;2023-08-06T13:01:14;6.15;;;2.90;;
48268;SDS011;34088;52.232;5.196;2023-08-06T13:06:05;4.47;;;2.97;;
48268;SDS011;34088;52.232;5.196;2023-08-06T13:10:55;6.27;;;3.17;;
48268;SDS011;34088;52.232;5.196;2023-08-06T13:15:46;4.67;;;2.80;;
48268;SDS011;34088;52.232;5.196;2023-08-06T13:18:11;6.00;;;2.80;;
48268;SDS011;34088;52.232;5.196;2023-08-06T13:20:38;5.68;;;3.03;;
48268;SDS011;34088;52.232;5.196;2023-08-06T13:23:05;5.68;;;2.70;;
48268;SDS011;34088;52.232;5.196;2023-08-06T13:27:55;6.27;;;2.70;;
48268;SDS011;34088;52.232;5.196;2023-08-06T13:32:48;6.13;;;2.80;;
48268;SDS011;34088;52.232;5.196;2023-08-06T13:37:38;6.30;;;2.65;;
48268;SDS011;34088;52.232;5.196;2023-08-06T13:40:04;5.95;;;2.78;;
48268;SDS011;34088;52.232;5.196;2023-08-06T13:42:31;4.72;;;2.83;;
48268;SDS011;34088;52.232;5.196;2023-08-06T13:47:27;7.15;;;3.08;;
48268;SDS011;34088;52.232;5.196;2023-08-06T13:52:18;7.97;;;3.10;;
48268;SDS011;34088;52.232;5.196;2023-08-06T13:54:43;6.00;;;3.28;;
48268;SDS011;34088;52.232;5.196;2023-08-06T13:59:34;4.17;;;2.87;;
48268;SDS011;34088;52.232;5.196;2023-08-06T14:01:59;4.35;;;2.72;;
48268;SDS011;34088;52.232;5.196;2023-08-06T14:04:25;7.82;;;3.40;;
48268;SDS011;34088;52.232;5.196;2023-08-06T14:09:15;6.80;;;2.60;;
48268;SDS011;34088;52.232;5.196;2023-08-06T14:11:43;3.55;;;2.90;;
48268;SDS011;34088;52.232;5.196;2023-08-06T14:16:34;5.43;;;2.93;;
48268;SDS011;34088;52.232;5.196;2023-08-06T14:18:59;4.88;;;2.55;;
48268;SDS011;34088;52.232;5.196;2023-08-06T14:21:24;5.82;;;2.75;;
48268;SDS011;34088;52.232;5.196;2023-08-06T14:26:15;6.43;;;2.90;;
48268;SDS011;34088;52.232;5.196;2023-08-06T14:28:40;3.72;;;2.17;;
48268;SDS011;34088;52.232;5.196;2023-08-06T14:31:06;4.35;;;2.63;;
48268;SDS011;34088;52.232;5.196;2023-08-06T14:33:31;5.03;;;2.50;;
48268;SDS011;34088;52.232;5.196;2023-08-06T14:38:22;4.85;;;1.70;;
48268;SDS011;34088;52.232;5.196;2023-08-06T14:40:47;5.93;;;1.70;;
48268;SDS011;34088;52.232;5.196;2023-08-06T14:43:13;3.78;;;1.85;;
48268;SDS011;34088;52.232;5.196;2023-08-06T14:48:04;4.30;;;1.80;;
48268;SDS011;34088;52.232;5.196;2023-08-06T14:52:54;6.50;;;1.87;;
48268;SDS011;34088;52.232;5.196;2023-08-06T14:55:26;5.80;;;1.42;;
48268;SDS011;34088;52.232;5.196;2023-08-06T14:57:52;7.32;;;1.80;;
48268;SDS011;34088;52.232;5.196;2023-08-06T15:02:43;7.53;;;1.95;;
48268;SDS011;34088;52.232;5.196;2023-08-06T15:05:08;5.80;;;1.30;;
48268;SDS011;34088;52.232;5.196;2023-08-06T15:07:33;5.85;;;1.25;;
48268;SDS011;34088;52.232;5.196;2023-08-06T15:10:00;8.65;;;1.50;;
48268;SDS011;34088;52.232;5.196;2023-08-06T15:12:26;3.80;;;1.05;;
48268;SDS011;34088;52.232;5.196;2023-08-06T15:17:17;6.60;;;1.48;;
